createdAt,value
2018-06-29T00:02:57.162Z,15.90
2018-06-29T00:06:01.551Z,17.20
2018-06-29T00:09:08.483Z,18.00
2018-06-29T00:12:12.910Z,21.10
2018-06-29T00:15:17.437Z,19.93
2018-06-29T00:18:21.788Z,22.48
2018-06-29T00:21:27.219Z,21.87
2018-06-29T00:24:31.581Z,22.07
2018-06-29T00:27:35.891Z,22.57
2018-06-29T00:30:40.551Z,21.27
2018-06-29T00:33:44.949Z,22.30
2018-06-29T00:36:50.323Z,22.00
2018-06-29T00:39:55.011Z,20.80
2018-06-29T00:42:59.353Z,20.20
2018-06-29T00:46:03.915Z,19.57
2018-06-29T00:49:08.255Z,18.13
2018-06-29T00:52:12.582Z,20.00
2018-06-29T00:55:17.054Z,20.37
2018-06-29T00:58:21.431Z,18.83
2018-06-29T01:01:26.393Z,20.27
2018-06-29T01:04:31.081Z,21.10
2018-06-29T01:07:35.462Z,22.57
2018-06-29T01:10:39.485Z,20.40
2018-06-29T01:13:43.805Z,20.53
2018-06-29T01:16:48.499Z,18.70
2018-06-29T01:19:52.816Z,17.87
2018-06-29T01:22:57.283Z,17.80
2018-06-29T01:26:02.558Z,17.20
2018-06-29T01:29:07.122Z,18.00
2018-06-29T01:32:11.412Z,17.87
2018-06-29T01:35:15.715Z,17.47
2018-06-29T01:38:20.098Z,16.80
2018-06-29T01:41:24.588Z,18.70
2018-06-29T01:44:28.851Z,18.70
2018-06-29T01:47:33.004Z,17.97
2018-06-29T01:50:37.854Z,19.20
2018-06-29T01:53:42.158Z,22.77
2018-06-29T01:56:46.417Z,21.53
2018-06-29T01:59:50.952Z,21.27
2018-06-29T02:02:55.853Z,21.70
2018-06-29T02:06:00.191Z,19.60
2018-06-29T02:09:06.533Z,20.83
2018-06-29T02:12:13.781Z,21.43
2018-06-29T02:15:18.086Z,22.17
2018-06-29T02:18:22.377Z,17.75
2018-06-29T02:21:26.658Z,10.40
2018-06-29T02:24:30.944Z,8.17
2018-06-29T02:27:35.251Z,7.90
2018-06-29T02:30:39.559Z,7.97
2018-06-29T02:33:43.894Z,7.97
2018-06-29T02:36:48.196Z,7.10
2018-06-29T02:39:52.493Z,6.55
2018-06-29T02:42:57.465Z,7.60
2018-06-29T02:46:01.785Z,7.77
2018-06-29T02:49:06.353Z,7.43
2018-06-29T02:52:10.628Z,7.97
2018-06-29T02:55:15.613Z,7.60
2018-06-29T02:58:19.916Z,9.20
2018-06-29T03:01:25.899Z,9.27
2018-06-29T03:04:30.311Z,8.80
2018-06-29T03:07:34.588Z,9.17
2018-06-29T03:10:38.982Z,11.15
2018-06-29T03:13:43.336Z,10.53
2018-06-29T03:16:47.641Z,12.63
2018-06-29T03:19:51.932Z,13.33
2018-06-29T03:23:11.114Z,14.03
2018-06-29T03:26:16.305Z,13.77
2018-06-29T03:29:20.781Z,14.27
2018-06-29T03:32:25.060Z,14.17
2018-06-29T03:35:29.432Z,13.00
2018-06-29T03:38:33.794Z,12.87
2018-06-29T03:41:38.418Z,12.37
2018-06-29T03:44:44.176Z,12.27
2018-06-29T03:47:50.082Z,13.13
2018-06-29T03:50:54.423Z,12.20
2018-06-29T03:53:58.810Z,13.07
2018-06-29T03:57:03.142Z,13.40
2018-06-29T04:00:07.797Z,14.30
2018-06-29T04:03:12.154Z,14.00
2018-06-29T04:06:16.644Z,13.03
2018-06-29T04:09:20.974Z,14.73
2018-06-29T04:12:25.478Z,13.17
2018-06-29T04:15:30.093Z,13.97
2018-06-29T04:18:34.577Z,15.03
2018-06-29T04:21:39.157Z,14.60
2018-06-29T04:24:44.255Z,14.00
2018-06-29T04:27:48.620Z,14.33
2018-06-29T04:30:53.497Z,16.30
2018-06-29T04:33:57.878Z,16.77
2018-06-29T04:37:02.158Z,15.87
2018-06-29T04:40:06.614Z,16.83
2018-06-29T04:43:10.794Z,16.83
2018-06-29T04:46:15.889Z,17.93
2018-06-29T04:49:20.662Z,17.10
2018-06-29T04:52:26.387Z,16.80
2018-06-29T04:55:31.336Z,17.27
2018-06-29T04:58:35.938Z,16.97
2018-06-29T05:01:41.843Z,17.33
2018-06-29T05:04:46.336Z,15.43
2018-06-29T05:07:50.754Z,15.77
2018-06-29T05:10:55.168Z,15.83
2018-06-29T05:13:59.545Z,17.07
2018-06-29T05:17:04.007Z,16.00
2018-06-29T05:20:08.261Z,16.30
2018-06-29T05:23:12.851Z,15.43
2018-06-29T05:26:17.557Z,16.97
2018-06-29T05:29:22.068Z,15.73
2018-06-29T05:32:26.944Z,15.63
2018-06-29T05:35:31.555Z,15.47
2018-06-29T05:38:36.161Z,16.87
2018-06-29T05:41:40.687Z,17.17
2018-06-29T05:44:45.602Z,16.70
2018-06-29T05:47:50.739Z,16.40
2018-06-29T05:50:55.126Z,16.83
2018-06-29T05:53:59.593Z,17.13
2018-06-29T05:57:03.973Z,17.13
2018-06-29T06:00:08.652Z,18.53
2018-06-29T06:03:13.261Z,18.03
2018-06-29T06:06:17.697Z,16.63
2018-06-29T06:09:23.431Z,16.03
2018-06-29T06:12:28.584Z,15.47
2018-06-29T06:15:33.268Z,15.87
2018-06-29T06:18:38.081Z,15.83
2018-06-29T06:21:42.423Z,15.87
2018-06-29T06:24:47.262Z,15.10
2018-06-29T06:27:51.672Z,15.80
2018-06-29T06:30:56.039Z,16.67
2018-06-29T06:34:00.406Z,16.13
2018-06-29T06:37:05.474Z,17.00
2018-06-29T06:40:10.109Z,14.97
2018-06-29T06:43:14.881Z,15.17
2018-06-29T06:46:19.282Z,15.43
2018-06-29T06:49:24.735Z,16.93
2018-06-29T06:52:29.113Z,15.80
2018-06-29T06:55:33.822Z,16.57
2018-06-29T06:58:38.893Z,16.17
2018-06-29T07:01:44.240Z,16.07
2018-06-29T07:04:48.521Z,17.00
2018-06-29T07:07:52.974Z,16.97
2018-06-29T07:10:57.509Z,16.23
2018-06-29T07:14:01.829Z,15.17
2018-06-29T07:17:06.424Z,17.33
2018-06-29T07:20:11.129Z,17.60
2018-06-29T07:23:15.747Z,19.77
2018-06-29T07:26:20.051Z,20.53
2018-06-29T07:29:24.737Z,20.30
2018-06-29T07:32:29.388Z,22.23
2018-06-29T07:35:33.671Z,23.80
2018-06-29T07:38:37.975Z,23.97
2018-06-29T07:41:42.256Z,23.40
2018-06-29T07:44:46.597Z,23.43
2018-06-29T07:48:13.205Z,22.23
2018-06-29T07:51:20.630Z,21.50
2018-06-29T07:54:25.230Z,21.17
2018-06-29T07:57:29.661Z,21.63
2018-06-29T08:00:34.283Z,22.23
2018-06-29T08:03:38.588Z,23.35
2018-06-29T08:06:42.905Z,22.60
2018-06-29T08:09:47.227Z,23.23
2018-06-29T08:12:52.939Z,23.83
2018-06-29T08:15:57.241Z,22.93
2018-06-29T08:19:02.465Z,22.33
2018-06-29T08:22:07.117Z,22.20
2018-06-29T08:25:16.052Z,23.33
2018-06-29T08:28:20.533Z,24.37
2018-06-29T08:31:25.846Z,22.87
2018-06-29T08:34:30.166Z,24.23
2018-06-29T08:37:34.591Z,24.07
2018-06-29T08:40:38.880Z,24.43
2018-06-29T08:43:43.211Z,25.23
2018-06-29T08:46:47.608Z,22.97
2018-06-29T08:49:51.938Z,22.47
2018-06-29T08:52:56.329Z,24.47
2018-06-29T08:56:00.972Z,24.33
2018-06-29T08:59:05.245Z,24.67
2018-06-29T09:02:09.720Z,22.53
2018-06-29T09:05:14.982Z,22.17
2018-06-29T09:08:19.281Z,22.80
2018-06-29T09:11:23.655Z,23.70
2018-06-29T09:14:27.937Z,24.00
2018-06-29T09:17:32.405Z,22.53
2018-06-29T09:20:37.097Z,24.30
2018-06-29T09:23:41.425Z,24.67
2018-06-29T09:26:45.745Z,22.77
2018-06-29T09:29:50.213Z,22.33
2018-06-29T09:32:55.549Z,22.77
2018-06-29T09:35:59.876Z,22.23
2018-06-29T09:39:06.329Z,20.97
2018-06-29T09:42:10.765Z,22.93
2018-06-29T09:45:15.515Z,23.03
2018-06-29T09:48:20.521Z,22.43
2018-06-29T09:51:25.200Z,22.13
2018-06-29T09:54:30.265Z,21.20
2018-06-29T09:57:35.653Z,19.63
2018-06-29T10:00:40.012Z,21.53
2018-06-29T10:03:44.941Z,20.40
2018-06-29T10:06:49.206Z,20.57
2018-06-29T10:09:53.632Z,20.03
2018-06-29T10:12:57.922Z,20.40
2018-06-29T10:16:02.277Z,20.07
2018-06-29T10:19:06.729Z,20.83
2018-06-29T10:22:11.590Z,21.27
2018-06-29T10:25:15.938Z,19.53
2018-06-29T10:28:20.270Z,20.33
2018-06-29T10:31:24.559Z,18.00
2018-06-29T10:34:28.837Z,20.20
2018-06-29T10:37:33.125Z,21.33
2018-06-29T10:40:37.483Z,21.17
2018-06-29T10:43:41.747Z,20.00
2018-06-29T10:46:46.032Z,20.00
2018-06-29T10:49:50.318Z,21.03
2018-06-29T10:52:55.074Z,19.87
2018-06-29T10:55:59.327Z,18.93
2018-06-29T10:59:03.689Z,18.80
2018-06-29T11:02:08.301Z,19.30
2018-06-29T11:05:12.929Z,19.60
2018-06-29T11:08:17.910Z,18.10
2018-06-29T11:11:22.128Z,18.57
2018-06-29T11:14:26.690Z,19.03
2018-06-29T11:17:31.141Z,18.97
2018-06-29T11:20:35.485Z,19.43
2018-06-29T11:23:40.456Z,19.40
2018-06-29T11:26:44.815Z,19.27
2018-06-29T11:29:49.145Z,19.57
2018-06-29T11:32:53.845Z,19.20
2018-06-29T11:35:58.281Z,19.77
2018-06-29T11:39:03.219Z,19.17
2018-06-29T11:42:08.707Z,18.10
2018-06-29T11:45:13.114Z,19.40
2018-06-29T11:48:17.700Z,19.27
2018-06-29T11:51:23.127Z,18.33
2018-06-29T11:54:27.785Z,17.60
2018-06-29T11:57:32.444Z,18.47
2018-06-29T12:00:37.294Z,18.83
2018-06-29T12:03:42.509Z,20.63
2018-06-29T12:06:46.844Z,19.60
2018-06-29T12:09:51.213Z,18.10
2018-06-29T12:12:55.566Z,17.97
2018-06-29T12:15:59.946Z,18.90
2018-06-29T12:19:04.486Z,19.67
2018-06-29T12:22:09.119Z,19.87
2018-06-29T12:25:14.160Z,19.50
2018-06-29T12:28:18.562Z,18.77
2018-06-29T12:31:22.882Z,18.10
2018-06-29T12:34:27.799Z,17.93
2018-06-29T12:37:32.148Z,19.00
2018-06-29T12:40:36.878Z,18.67
2018-06-29T12:43:42.965Z,18.63
2018-06-29T12:46:54.524Z,19.30
2018-06-29T12:49:59.285Z,20.97
2018-06-29T12:53:03.619Z,20.77
2018-06-29T12:56:08.877Z,20.67
2018-06-29T12:59:15.771Z,21.90
2018-06-29T13:02:20.114Z,20.07
2018-06-29T13:05:24.700Z,19.73
2018-06-29T13:08:28.950Z,19.77
2018-06-29T13:11:33.258Z,21.00
2018-06-29T13:14:37.687Z,18.80
2018-06-29T13:17:42.027Z,19.23
2018-06-29T13:20:46.453Z,19.00
2018-06-29T13:23:50.860Z,19.35
2018-06-29T13:26:55.136Z,18.50
2018-06-29T13:30:00.381Z,17.80
2018-06-29T13:33:04.970Z,17.95
2018-06-29T13:36:10.473Z,18.43
2018-06-29T13:39:14.955Z,17.70
2018-06-29T13:42:20.098Z,17.93
2018-06-29T13:45:24.412Z,17.57
2018-06-29T13:48:28.833Z,17.23
2018-06-29T13:51:33.147Z,18.80
2018-06-29T13:54:38.161Z,18.23
2018-06-29T13:57:42.467Z,18.17
2018-06-29T14:00:46.950Z,17.17
2018-06-29T14:03:51.494Z,16.77
2018-06-29T14:06:56.131Z,17.13
2018-06-29T14:10:00.593Z,18.17
2018-06-29T14:13:05.830Z,16.73
2018-06-29T14:16:11.417Z,16.40
2018-06-29T14:19:16.179Z,16.90
2018-06-29T14:22:21.648Z,15.93
2018-06-29T14:25:27.310Z,14.97
2018-06-29T14:28:31.838Z,15.30
2018-06-29T14:31:36.495Z,14.47
2018-06-29T14:34:41.259Z,12.97
2018-06-29T14:37:45.803Z,13.30
2018-06-29T14:40:50.477Z,13.37
2018-06-29T14:43:55.485Z,13.15
2018-06-29T14:47:00.148Z,13.17
2018-06-29T14:50:05.025Z,14.13
2018-06-29T14:53:09.413Z,14.23
2018-06-29T14:56:13.834Z,14.20
2018-06-29T14:59:18.260Z,12.60
2018-06-29T15:02:22.685Z,14.33
2018-06-29T15:05:27.059Z,12.93
2018-06-29T15:08:31.457Z,13.87
2018-06-29T15:11:36.014Z,13.73
2018-06-29T15:14:40.389Z,13.80
2018-06-29T15:17:44.892Z,13.93
2018-06-29T15:20:49.457Z,12.70
2018-06-29T15:23:54.007Z,12.57
2018-06-29T15:26:58.693Z,12.67
2018-06-29T15:30:03.233Z,12.53
2018-06-29T15:33:07.704Z,12.20
2018-06-29T15:36:12.318Z,11.97
2018-06-29T15:39:16.843Z,12.50
2018-06-29T15:42:21.157Z,12.23
2018-06-29T15:45:25.494Z,13.13
2018-06-29T15:48:29.667Z,12.17
2018-06-29T15:51:34.980Z,12.20
2018-06-29T15:54:39.527Z,12.57
2018-06-29T15:57:43.940Z,11.57
2018-06-29T16:00:48.321Z,11.40
2018-06-29T16:03:52.764Z,11.30
2018-06-29T16:06:57.313Z,11.87
2018-06-29T16:10:07.761Z,11.13
2018-06-29T16:13:12.111Z,10.90
2018-06-29T16:16:16.774Z,12.50
2018-06-29T16:19:21.230Z,11.00
2018-06-29T16:22:25.909Z,10.83
2018-06-29T16:25:30.446Z,9.53
2018-06-29T16:28:34.899Z,10.80
2018-06-29T16:31:39.237Z,9.43
2018-06-29T16:34:43.881Z,10.27
2018-06-29T16:37:48.445Z,9.67
2018-06-29T16:40:53.131Z,9.97
2018-06-29T16:43:57.529Z,9.60
2018-06-29T16:47:02.122Z,9.70
2018-06-29T16:50:07.617Z,9.13
2018-06-29T16:53:13.111Z,9.55
2018-06-29T16:56:17.504Z,9.47
2018-06-29T16:59:21.850Z,9.47
2018-06-29T17:02:26.436Z,9.07
2018-06-29T17:05:31.488Z,9.47
2018-06-29T17:08:35.856Z,8.40
2018-06-29T17:11:40.536Z,9.83
2018-06-29T17:14:44.854Z,9.30
2018-06-29T17:17:49.398Z,9.87
2018-06-29T17:20:54.085Z,9.27
2018-06-29T17:23:58.633Z,10.40
2018-06-29T17:27:03.036Z,9.63
2018-06-29T17:30:07.384Z,10.17
2018-06-29T17:33:11.683Z,9.70
2018-06-29T17:36:16.403Z,9.87
2018-06-29T17:39:20.689Z,9.43
2018-06-29T17:42:24.959Z,10.10
2018-06-29T17:45:29.237Z,9.63
2018-06-29T17:48:33.538Z,9.70
2018-06-29T17:51:38.332Z,9.03
2018-06-29T17:54:43.067Z,8.83
2018-06-29T17:57:47.964Z,9.27
2018-06-29T18:00:52.393Z,9.10
2018-06-29T18:03:56.626Z,9.27
2018-06-29T18:07:01.094Z,10.03
2018-06-29T18:10:05.816Z,9.73
2018-06-29T18:13:10.542Z,10.67
2018-06-29T18:16:15.454Z,10.33
2018-06-29T18:19:20.048Z,9.27
2018-06-29T18:22:24.461Z,9.70
2018-06-29T18:25:29.048Z,8.97
2018-06-29T18:28:33.398Z,9.27
2018-06-29T18:31:38.320Z,10.20
2018-06-29T18:34:42.641Z,9.60
2018-06-29T18:37:46.943Z,9.77
2018-06-29T18:40:51.273Z,9.07
2018-06-29T18:43:55.649Z,10.17
2018-06-29T18:47:00.123Z,9.70
2018-06-29T18:50:04.814Z,9.40
2018-06-29T18:53:09.792Z,9.37
2018-06-29T18:56:14.073Z,9.67
2018-06-29T18:59:18.486Z,9.57
2018-06-29T19:02:25.166Z,8.90
2018-06-29T19:05:29.780Z,9.03
2018-06-29T19:08:34.128Z,9.50
2018-06-29T19:11:38.822Z,9.73
2018-06-29T19:14:43.166Z,10.93
2018-06-29T19:17:47.585Z,12.43
2018-06-29T19:20:51.961Z,12.07
2018-06-29T19:23:56.076Z,12.73
2018-06-29T19:27:00.967Z,11.70
2018-06-29T19:30:05.970Z,12.20
2018-06-29T19:33:10.359Z,11.33
2018-06-29T19:36:15.570Z,11.50
2018-06-29T19:39:19.887Z,11.60
2018-06-29T19:42:24.216Z,11.93
2018-06-29T19:45:28.851Z,10.67
2018-06-29T19:48:33.202Z,10.87
2018-06-29T19:51:38.293Z,10.63
2018-06-29T19:54:42.697Z,11.47
2018-06-29T19:57:46.999Z,11.77
2018-06-29T20:00:51.405Z,11.40
2018-06-29T20:03:55.901Z,11.37
2018-06-29T20:07:00.256Z,11.60
2018-06-29T20:10:05.117Z,12.67
2018-06-29T20:13:09.357Z,11.43
2018-06-29T20:16:13.648Z,12.93
2018-06-29T20:19:17.928Z,11.43
2018-06-29T20:22:22.427Z,11.90
2018-06-29T20:25:26.782Z,12.40
2018-06-29T20:28:31.288Z,13.00
2018-06-29T20:31:35.761Z,12.23
2018-06-29T20:34:40.359Z,12.53
2018-06-29T20:37:44.793Z,13.40
2018-06-29T20:40:49.226Z,13.13
2018-06-29T20:43:55.221Z,13.17
2018-06-29T20:46:59.613Z,13.30
2018-06-29T20:50:04.496Z,12.73
2018-06-29T20:53:08.859Z,12.07
2018-06-29T20:56:13.665Z,12.07
2018-06-29T20:59:18.473Z,11.80
2018-06-29T21:02:22.853Z,11.70
2018-06-29T21:05:27.134Z,11.20
2018-06-29T21:08:31.425Z,11.83
2018-06-29T21:11:36.240Z,12.07
2018-06-29T21:14:41.385Z,11.73
2018-06-29T21:17:45.742Z,11.00
2018-06-29T21:20:50.228Z,11.17
2018-06-29T21:23:54.673Z,11.80
2018-06-29T21:26:59.223Z,11.87
2018-06-29T21:30:03.667Z,12.60
2018-06-29T21:33:08.081Z,11.55
2018-06-29T21:36:12.472Z,11.30
2018-06-29T21:39:16.820Z,11.93
2018-06-29T21:42:21.164Z,11.97
2018-06-29T21:45:25.812Z,11.03
2018-06-29T21:48:30.289Z,11.73
2018-06-29T21:51:35.411Z,12.10
2018-06-29T21:54:39.693Z,12.13
2018-06-29T21:57:45.583Z,11.90
2018-06-29T22:00:54.274Z,10.97
2018-06-29T22:03:58.958Z,11.17
2018-06-29T22:07:03.319Z,11.27
2018-06-29T22:10:09.942Z,11.53
2018-06-29T22:13:14.572Z,11.33
2018-06-29T22:16:19.330Z,11.67
2018-06-29T22:19:23.731Z,11.83
2018-06-29T22:22:28.054Z,11.20
2018-06-29T22:25:32.969Z,12.33
2018-06-29T22:28:37.512Z,12.23
2018-06-29T22:31:41.676Z,12.00
2018-06-29T22:35:47.376Z,12.73
2018-06-29T22:38:58.451Z,13.10
2018-06-29T22:42:03.973Z,11.83
2018-06-29T22:45:08.789Z,11.90
2018-06-29T22:48:13.113Z,11.27
2018-06-29T22:51:17.742Z,10.70
2018-06-29T22:54:22.574Z,10.93
2018-06-29T22:57:27.361Z,10.57
2018-06-29T23:00:31.666Z,9.87
2018-06-29T23:03:54.544Z,10.40
2018-06-29T23:06:58.935Z,10.43
2018-06-29T23:10:03.420Z,10.25
2018-06-29T23:13:08.543Z,11.07
2018-06-29T23:16:12.813Z,11.23
2018-06-29T23:19:17.117Z,10.90
2018-06-29T23:22:22.033Z,10.60
2018-06-29T23:25:26.625Z,9.93
2018-06-29T23:28:31.066Z,10.73
2018-06-29T23:31:35.358Z,11.83
2018-06-29T23:34:39.722Z,10.53
2018-06-29T23:37:45.226Z,10.40
2018-06-29T23:40:49.593Z,9.77
2018-06-29T23:43:53.936Z,10.27
2018-06-29T23:46:58.589Z,10.90
2018-06-29T23:50:02.994Z,10.67
2018-06-29T23:53:07.684Z,10.03
2018-06-29T23:56:12.015Z,10.00
2018-06-29T23:59:16.392Z,9.63
